Time;durP1;ratioP1;P1;durP2;ratioP2;P2;SDS_P1;SDS_P2;PMS_P1;PMS_P2;Temp;Humidity;BMP_temperature;BMP_pressure;BME280_temperature;BME280_humidity;BME280_pressure;Samples;Min_cycle;Max_cycle;Signal;HPM_P1;HPM_P2
2021/11/09 00:00:57;;;;;;;11.10;6.97;;;10.30;99.90;;;;;;5073881;28;20474;-83
2021/11/09 00:03:24;;;;;;;11.00;6.63;;;10.20;99.90;;;;;;5073755;28;20439;-83
2021/11/09 00:05:53;;;;;;;8.40;6.53;;;10.30;99.90;;;;;;5073465;28;20509;-83
2021/11/09 00:08:22;;;;;;;10.80;7.00;;;10.30;99.90;;;;;;5073684;28;20479;-83
2021/11/09 00:10:49;;;;;;;17.27;8.37;;;10.30;99.90;;;;;;5073899;28;20444;-83
2021/11/09 00:13:17;;;;;;;9.00;7.13;;;10.30;99.90;;;;;;5073871;28;20450;-83
2021/11/09 00:15:45;;;;;;;10.57;6.70;;;10.30;99.90;;;;;;5073687;28;20479;-83
2021/11/09 00:18:12;;;;;;;9.87;7.60;;;10.30;99.90;;;;;;5073262;28;21123;-83
2021/11/09 00:20:40;;;;;;;11.77;8.00;;;10.30;99.90;;;;;;5073392;28;21021;-83
2021/11/09 00:23:08;;;;;;;9.10;7.60;;;10.40;99.90;;;;;;5073470;28;20538;-83
2021/11/09 00:25:36;;;;;;;19.90;8.73;;;10.40;99.90;;;;;;5073138;28;20554;-83
2021/11/09 00:28:04;;;;;;;9.53;7.63;;;10.40;99.90;;;;;;5073163;28;20479;-83
2021/11/09 00:30:30;;;;;;;9.50;7.37;;;10.40;99.90;;;;;;5073037;28;21014;-84
2021/11/09 00:32:59;;;;;;;15.23;7.97;;;10.40;99.90;;;;;;5072685;28;20448;-83
2021/11/09 00:35:28;;;;;;;12.53;7.23;;;10.40;99.90;;;;;;5073054;28;20534;-83
2021/11/09 00:37:57;;;;;;;12.33;6.67;;;10.40;99.90;;;;;;5072407;28;20493;-83
2021/11/09 00:40:26;;;;;;;11.47;7.83;;;10.40;99.90;;;;;;5072976;28;20885;-83
2021/11/09 00:42:53;;;;;;;10.37;8.10;;;10.40;99.90;;;;;;5059012;28;20447;-84
2021/11/09 00:45:20;;;;;;;15.30;9.13;;;10.50;99.90;;;;;;5072238;28;20554;-83
2021/11/09 00:47:48;;;;;;;19.67;9.07;;;10.40;99.90;;;;;;5072983;28;20503;-83
2021/11/09 00:50:17;;;;;;;13.43;7.57;;;10.50;99.90;;;;;;5073039;28;20542;-83
2021/11/09 00:52:44;;;;;;;11.57;7.20;;;10.50;99.90;;;;;;5072821;28;20913;-83
2021/11/09 00:55:13;;;;;;;13.30;8.77;;;10.50;99.90;;;;;;5073070;28;20526;-84
2021/11/09 00:57:39;;;;;;;14.83;8.20;;;10.50;99.90;;;;;;5068687;28;20479;-84
2021/11/09 01:00:08;;;;;;;9.17;6.77;;;10.50;99.90;;;;;;5060245;28;20542;-84
2021/11/09 01:02:34;;;;;;;15.17;8.20;;;10.50;99.90;;;;;;5072734;28;20475;-84
2021/11/09 01:05:01;;;;;;;11.60;8.07;;;10.50;99.90;;;;;;5072671;28;20452;-83
2021/11/09 01:07:29;;;;;;;12.30;7.83;;;10.50;99.90;;;;;;5072637;28;20559;-83
2021/11/09 01:09:56;;;;;;;18.67;9.83;;;10.50;99.90;;;;;;5072598;28;20474;-83
2021/11/09 01:12:22;;;;;;;12.17;7.60;;;10.50;99.90;;;;;;5072556;28;20479;-84
2021/11/09 01:14:49;;;;;;;8.00;7.20;;;10.50;99.90;;;;;;5072984;28;20539;-84
2021/11/09 01:17:17;;;;;;;10.83;7.73;;;10.50;99.90;;;;;;5079449;28;20857;-83
2021/11/09 01:19:43;;;;;;;12.47;7.30;;;10.50;99.90;;;;;;5071745;28;20542;-83
2021/11/09 01:22:10;;;;;;;13.73;7.23;;;10.60;99.90;;;;;;5070157;28;20522;-81
2021/11/09 01:24:38;;;;;;;10.80;7.47;;;10.60;99.90;;;;;;5072883;28;20531;-82
2021/11/09 01:27:05;;;;;;;13.47;8.23;;;10.60;99.90;;;;;;5072575;28;20989;-82
2021/11/09 01:29:32;;;;;;;16.60;8.00;;;10.60;99.90;;;;;;5073013;28;20863;-83
2021/11/09 01:31:59;;;;;;;11.77;8.60;;;10.60;99.90;;;;;;5072960;28;20535;-83
2021/11/09 01:34:26;;;;;;;17.23;9.50;;;10.60;99.90;;;;;;5072459;28;20443;-83
2021/11/09 01:36:53;;;;;;;14.97;8.73;;;10.60;99.90;;;;;;5072425;28;20487;-83
2021/11/09 01:39:20;;;;;;;10.70;7.83;;;10.60;99.90;;;;;;5072853;28;20451;-83
2021/11/09 01:41:48;;;;;;;14.57;8.43;;;10.60;99.90;;;;;;5064425;28;20877;-82
2021/11/09 01:44:15;;;;;;;16.40;8.70;;;10.60;99.90;;;;;;5071003;28;21033;-82
2021/11/09 01:46:42;;;;;;;16.73;9.10;;;10.50;99.90;;;;;;5072571;28;20490;-82
2021/11/09 01:49:09;;;;;;;15.03;8.57;;;10.50;99.90;;;;;;5072372;28;20529;-82
2021/11/09 01:51:36;;;;;;;14.77;8.07;;;10.50;99.90;;;;;;5072710;28;20538;-82
2021/11/09 01:54:04;;;;;;;12.50;7.57;;;10.60;99.90;;;;;;5072528;28;20447;-84
2021/11/09 01:56:33;;;;;;;13.30;7.30;;;10.60;99.90;;;;;;5073090;28;20501;-84
2021/11/09 01:59:01;;;;;;;14.00;7.80;;;10.60;99.90;;;;;;5072818;28;20494;-83
2021/11/09 02:01:29;;;;;;;18.27;7.70;;;10.60;99.90;;;;;;5072416;28;20505;-82
2021/11/09 02:03:58;;;;;;;10.87;7.50;;;10.50;99.90;;;;;;5072360;28;20471;-82
2021/11/09 02:06:26;;;;;;;13.00;8.20;;;10.50;99.90;;;;;;5072645;28;20900;-82
2021/11/09 02:08:58;;;;;;;13.90;8.90;;;10.60;99.90;;;;;;5072433;28;20499;-82
2021/11/09 02:11:25;;;;;;;8.10;6.53;;;10.50;99.90;;;;;;5075160;28;20547;-82
2021/11/09 02:13:52;;;;;;;14.73;8.27;;;10.50;99.90;;;;;;5076119;28;20444;-82
2021/11/09 02:16:19;;;;;;;12.37;7.57;;;10.50;99.90;;;;;;5076084;28;20883;-82
2021/11/09 02:18:46;;;;;;;13.50;7.40;;;10.60;99.90;;;;;;5076104;28;20538;-82
2021/11/09 02:21:14;;;;;;;7.03;6.33;;;10.50;99.90;;;;;;5076482;28;20539;-83
2021/11/09 02:23:43;;;;;;;12.13;7.70;;;10.50;99.90;;;;;;5076316;28;20457;-84
2021/11/09 02:26:11;;;;;;;12.00;7.90;;;10.50;99.90;;;;;;5076015;28;20502;-84
2021/11/09 02:28:38;;;;;;;12.20;7.30;;;10.60;99.90;;;;;;5075855;28;20482;-83
2021/11/09 02:31:05;;;;;;;11.77;7.90;;;10.50;99.90;;;;;;5076190;28;20527;-83
2021/11/09 02:33:32;;;;;;;8.97;6.77;;;10.50;99.90;;;;;;5075733;28;20990;-82
2021/11/09 02:35:59;;;;;;;12.73;8.33;;;10.50;99.90;;;;;;5075365;28;20530;-82
2021/11/09 02:38:27;;;;;;;8.37;6.10;;;10.50;99.90;;;;;;5075723;28;20526;-82
2021/11/09 02:40:54;;;;;;;14.90;7.23;;;10.40;99.90;;;;;;5074386;28;20448;-81
2021/11/09 02:43:21;;;;;;;10.17;6.90;;;10.40;99.90;;;;;;5069288;28;20486;-83
2021/11/09 02:46:01;;;;;;;9.83;7.23;;;10.40;99.90;;;;;;5075637;28;20474;-83
2021/11/09 02:48:30;;;;;;;9.93;6.63;;;10.40;99.90;;;;;;5075935;28;20475;-84
2021/11/09 02:51:02;;;;;;;11.30;6.43;;;10.40;99.90;;;;;;5075664;28;20526;-81
2021/11/09 02:53:35;;;;;;;10.33;7.23;;;10.40;99.90;;;;;;5075410;28;20992;-81
2021/11/09 02:56:07;;;;;;;11.07;6.60;;;10.40;99.90;;;;;;5075245;28;20452;-81
2021/11/09 02:58:44;;;;;;;9.90;6.90;;;10.40;99.90;;;;;;5075282;28;20444;-81
2021/11/09 03:01:14;;;;;;;11.70;6.93;;;10.40;99.90;;;;;;5075129;28;20534;-81
2021/11/09 03:03:45;;;;;;;11.57;8.03;;;10.40;99.90;;;;;;5075215;28;20439;-81
2021/11/09 03:06:25;;;;;;;12.03;6.60;;;10.40;99.90;;;;;;5074700;28;20443;-82
2021/11/09 03:08:57;;;;;;;9.40;6.70;;;10.40;99.90;;;;;;5075244;28;20475;-82
2021/11/09 03:11:24;;;;;;;11.73;7.37;;;10.40;99.90;;;;;;5075263;28;20501;-83
2021/11/09 03:13:52;;;;;;;8.13;7.00;;;10.40;99.90;;;;;;5075144;28;20448;-83
2021/11/09 03:16:19;;;;;;;11.37;8.43;;;10.40;99.90;;;;;;5075062;28;20455;-83
2021/11/09 03:18:50;;;;;;;10.97;7.40;;;10.40;99.90;;;;;;5075143;28;20526;-83
2021/11/09 03:40:31;;;;;;;17.57;9.27;;;10.40;99.90;;;;;;5074340;28;20493;-81
2021/11/09 03:45:42;;;;;;;13.07;9.07;;;10.40;99.90;;;;;;5074405;28;20446;-83
2021/11/09 03:48:12;;;;;;;22.20;10.23;;;10.40;99.90;;;;;;5074502;28;20486;-82
2021/11/09 03:50:40;;;;;;;15.77;9.80;;;10.40;99.90;;;;;;5074172;28;20479;-82
2021/11/09 03:53:11;;;;;;;14.10;8.97;;;10.40;99.90;;;;;;5074212;28;20479;-81
2021/11/09 03:55:53;;;;;;;15.30;9.17;;;10.30;99.90;;;;;;5074110;28;20451;-82
2021/11/09 03:58:24;;;;;;;14.20;9.10;;;10.30;99.90;;;;;;5059166;28;20440;-83
2021/11/09 04:00:56;;;;;;;18.30;10.60;;;10.30;99.90;;;;;;5074013;28;20534;-84
2021/11/09 04:03:34;;;;;;;14.57;9.40;;;10.30;99.90;;;;;;5073932;28;20466;-84
2021/11/09 04:06:12;;;;;;;16.87;9.40;;;10.30;99.90;;;;;;5073671;28;20479;-84
2021/11/09 04:08:43;;;;;;;19.10;9.87;;;10.30;99.90;;;;;;5073566;28;20557;-81
2021/11/09 04:11:16;;;;;;;15.00;10.97;;;10.40;99.90;;;;;;5073698;28;20530;-81
2021/11/09 04:13:47;;;;;;;16.30;9.70;;;10.40;99.90;;;;;;5073724;28;20452;-82
2021/11/09 04:19:00;;;;;;;17.00;9.20;;;10.40;99.90;;;;;;5071529;28;20551;-82
2021/11/09 04:21:42;;;;;;;17.40;9.93;;;10.40;99.90;;;;;;5073615;28;20536;-83
2021/11/09 04:24:43;;;;;;;13.03;9.57;;;10.40;99.90;;;;;;5057342;28;20479;-83
2021/11/09 04:27:18;;;;;;;13.10;9.50;;;10.40;99.90;;;;;;5073122;28;20562;-83
2021/11/09 04:29:58;;;;;;;16.80;10.10;;;10.50;99.90;;;;;;5073118;28;20486;-83
2021/11/09 04:35:52;;;;;;;13.77;10.77;;;10.40;99.90;;;;;;5073108;28;20966;-81
2021/11/09 04:50:03;;;;;;;15.67;9.97;;;10.40;99.90;;;;;;5072979;28;21139;-81
2021/11/09 04:52:44;;;;;;;18.20;11.13;;;10.40;99.90;;;;;;5059598;28;20475;-83
2021/11/09 05:09:07;;;;;;;11.90;9.13;;;10.40;99.90;;;;;;5072565;28;20474;-83
2021/11/09 05:11:34;;;;;;;15.80;11.40;;;10.30;99.90;;;;;;5072811;28;20791;-83
2021/11/09 05:14:01;;;;;;;23.80;10.37;;;10.30;99.90;;;;;;5072673;28;20447;-83
2021/11/09 05:16:29;;;;;;;14.10;10.57;;;10.30;99.90;;;;;;5072526;28;20863;-81
2021/11/09 05:18:55;;;;;;;21.40;12.13;;;10.40;99.90;;;;;;5072663;28;20479;-81
2021/11/09 05:21:22;;;;;;;18.43;10.93;;;10.40;99.90;;;;;;5072538;28;20504;-81
2021/11/09 05:23:48;;;;;;;19.90;10.50;;;10.40;99.90;;;;;;5072455;28;20842;-82
2021/11/09 05:26:15;;;;;;;18.77;9.90;;;10.40;99.90;;;;;;5072167;28;20899;-82
2021/11/09 05:28:42;;;;;;;17.60;10.90;;;10.40;99.90;;;;;;5072468;28;20503;-82
2021/11/09 05:31:08;;;;;;;12.53;10.07;;;10.40;99.90;;;;;;5072467;28;20534;-82
2021/11/09 05:33:36;;;;;;;16.80;10.50;;;10.50;99.90;;;;;;5072535;28;20451;-90
2021/11/09 05:36:09;;;;;;;20.20;11.00;;;10.50;99.90;;;;;;5072649;28;20448;-88
2021/11/09 05:38:44;;;;;;;16.57;11.03;;;10.40;99.90;;;;;;5072695;28;20455;-86
2021/11/09 05:41:11;;;;;;;17.17;12.40;;;10.40;99.90;;;;;;5072609;28;20451;-85
2021/11/09 05:43:38;;;;;;;16.87;11.37;;;10.40;99.90;;;;;;5072396;28;20493;-81
2021/11/09 05:46:08;;;;;;;13.73;10.47;;;10.40;99.90;;;;;;5076297;28;20526;-81
2021/11/09 05:48:36;;;;;;;29.03;11.77;;;10.50;99.90;;;;;;5076545;28;20550;-81
2021/11/09 05:51:03;;;;;;;25.40;12.30;;;10.50;99.90;;;;;;5076479;28;20443;-81
2021/11/09 05:53:30;;;;;;;19.30;12.17;;;10.50;99.90;;;;;;5076255;28;21142;-80
2021/11/09 05:55:57;;;;;;;16.00;10.20;;;10.50;99.90;;;;;;5076378;28;20526;-79
2021/11/09 05:58:24;;;;;;;20.93;10.70;;;10.50;99.90;;;;;;5076191;28;20447;-82
2021/11/09 06:00:51;;;;;;;21.23;11.33;;;10.50;99.90;;;;;;5073940;28;20942;-82
2021/11/09 06:03:22;;;;;;;19.80;10.13;;;10.50;99.90;;;;;;5075597;28;21021;-82
2021/11/09 06:05:50;;;;;;;21.10;9.97;;;10.50;99.90;;;;;;5076146;28;20510;-82
2021/11/09 06:08:17;;;;;;;28.37;11.00;;;10.50;99.90;;;;;;5075835;28;20475;-82
2021/11/09 06:10:43;;;;;;;21.03;10.07;;;10.50;99.90;;;;;;5075821;28;21052;-81
2021/11/09 06:13:10;;;;;;;14.60;9.60;;;10.50;99.90;;;;;;5075752;28;21029;-81
2021/11/09 06:15:37;;;;;;;19.00;12.03;;;10.50;99.90;;;;;;5075547;28;21026;-82
2021/11/09 06:18:04;;;;;;;15.77;9.90;;;10.70;99.90;;;;;;5075412;28;20486;-81
2021/11/09 06:20:33;;;;;;;15.83;11.03;;;10.60;99.90;;;;;;5075831;28;20500;-83
2021/11/09 06:23:02;;;;;;;17.90;10.13;;;10.50;99.90;;;;;;5075824;28;20475;-82
2021/11/09 06:25:28;;;;;;;20.60;10.27;;;10.50;99.90;;;;;;5075436;28;20558;-83
2021/11/09 06:27:55;;;;;;;17.90;9.90;;;10.50;99.90;;;;;;5075758;28;20483;-82
2021/11/09 06:30:22;;;;;;;17.73;9.50;;;10.50;99.90;;;;;;5075427;28;20577;-82
2021/11/09 06:32:50;;;;;;;15.03;9.80;;;10.60;99.90;;;;;;5075762;28;20482;-82
2021/11/09 06:35:19;;;;;;;18.37;10.30;;;10.50;99.90;;;;;;5076180;28;20504;-94
2021/11/09 06:37:45;;;;;;;15.33;10.60;;;10.50;99.90;;;;;;5075970;28;20965;-90
2021/11/09 06:40:13;;;;;;;19.10;9.77;;;10.50;99.90;;;;;;5075570;28;20551;-90
2021/11/09 06:42:41;;;;;;;19.33;9.30;;;10.50;99.90;;;;;;5068071;28;20490;-81
2021/11/09 06:45:08;;;;;;;21.30;9.63;;;10.50;99.90;;;;;;5075356;28;20443;-82
2021/11/09 06:47:35;;;;;;;13.77;9.33;;;10.50;99.90;;;;;;5075380;28;20471;-82
2021/11/09 06:50:04;;;;;;;18.10;9.93;;;10.50;99.90;;;;;;5075182;28;20474;-82
2021/11/09 06:52:31;;;;;;;19.33;11.00;;;10.50;99.90;;;;;;5075160;28;20502;-80
2021/11/09 06:54:57;;;;;;;15.30;9.60;;;10.50;99.90;;;;;;5075224;28;20447;-80
2021/11/09 06:57:25;;;;;;;15.67;8.40;;;10.50;99.90;;;;;;5074315;28;20487;-80
2021/11/09 06:59:52;;;;;;;16.90;9.97;;;10.60;99.90;;;;;;5075167;28;20487;-81
2021/11/09 07:02:20;;;;;;;20.47;10.27;;;10.60;99.90;;;;;;5075151;28;20447;-82
2021/11/09 07:04:46;;;;;;;14.10;9.50;;;10.60;99.90;;;;;;5075071;28;20493;-82
2021/11/09 07:07:13;;;;;;;13.07;9.63;;;10.60;99.90;;;;;;5074949;28;20494;-82
2021/11/09 07:09:39;;;;;;;15.90;8.80;;;10.60;99.90;;;;;;5074815;28;20517;-80
2021/11/09 07:12:07;;;;;;;11.43;9.37;;;10.70;99.90;;;;;;5054651;28;20531;-80
2021/11/09 07:14:35;;;;;;;14.37;8.60;;;10.70;99.90;;;;;;5062263;28;20531;-80
2021/11/09 07:17:02;;;;;;;12.10;9.13;;;10.70;99.90;;;;;;5074773;28;20447;-80
2021/11/09 07:19:30;;;;;;;15.17;8.93;;;10.70;99.90;;;;;;5074819;28;20491;-80
2021/11/09 07:21:57;;;;;;;18.17;9.60;;;10.70;99.90;;;;;;5074456;28;20531;-81
2021/11/09 07:24:23;;;;;;;10.77;8.53;;;10.80;99.90;;;;;;5074448;28;20455;-81
2021/11/09 07:26:50;;;;;;;13.40;8.57;;;10.80;99.90;;;;;;5074396;28;20907;-82
2021/11/09 07:29:16;;;;;;;11.10;9.00;;;10.90;99.90;;;;;;5074324;28;20551;-82
2021/11/09 07:31:44;;;;;;;11.80;8.03;;;10.90;99.90;;;;;;5074702;28;20542;-82
2021/11/09 07:34:11;;;;;;;22.40;9.43;;;10.90;99.90;;;;;;5074331;28;20497;-82
2021/11/09 07:36:37;;;;;;;15.10;9.40;;;10.90;99.90;;;;;;5074452;28;20531;-82
2021/11/09 07:39:05;;;;;;;9.97;7.60;;;10.90;99.90;;;;;;5074357;28;20447;-82
2021/11/09 07:41:32;;;;;;;12.83;7.47;;;10.90;99.90;;;;;;5068337;28;20543;-81
2021/11/09 07:44:02;;;;;;;12.17;8.77;;;11.00;99.90;;;;;;5073141;28;20984;-81
2021/11/09 07:46:29;;;;;;;15.80;9.43;;;11.30;99.90;;;;;;5074466;28;20444;-81
2021/11/09 07:48:57;;;;;;;13.50;8.60;;;11.10;99.90;;;;;;5073999;28;20922;-81
2021/11/09 07:51:23;;;;;;;13.47;9.17;;;11.20;99.90;;;;;;5074054;28;20447;-81
2021/11/09 07:53:50;;;;;;;19.30;9.37;;;11.10;99.90;;;;;;5073865;28;20475;-81
2021/11/09 07:56:19;;;;;;;15.37;9.13;;;11.10;99.90;;;;;;5074070;28;20527;-81
2021/11/09 07:58:53;;;;;;;12.60;7.90;;;11.20;99.90;;;;;;5073897;28;20958;-82
2021/11/09 08:01:28;;;;;;;21.30;9.57;;;11.20;99.90;;;;;;5073986;28;20471;-82
2021/11/09 08:04:06;;;;;;;16.03;8.00;;;11.20;99.90;;;;;;5073653;28;20489;-82
2021/11/09 08:06:44;;;;;;;14.70;9.27;;;11.30;99.90;;;;;;5073740;28;21021;-82
2021/11/09 08:09:15;;;;;;;12.80;8.50;;;11.30;99.90;;;;;;5072553;28;20938;-81
2021/11/09 08:11:43;;;;;;;15.07;8.40;;;11.40;99.90;;;;;;5073805;28;20926;-81
2021/11/09 08:14:11;;;;;;;17.30;11.67;;;11.40;99.90;;;;;;5073274;28;20969;-82
2021/11/09 08:16:38;;;;;;;20.37;12.10;;;11.40;99.90;;;;;;5073453;28;20851;-81
2021/11/09 08:19:07;;;;;;;11.50;9.07;;;11.50;99.90;;;;;;5073681;28;20858;-81
2021/11/09 08:21:34;;;;;;;14.33;7.80;;;11.50;99.90;;;;;;5073721;28;20555;-81
2021/11/09 08:24:01;;;;;;;15.10;8.40;;;11.60;99.90;;;;;;5073372;28;20542;-81
2021/11/09 08:26:28;;;;;;;9.90;7.83;;;11.60;99.90;;;;;;5073226;28;20506;-83
2021/11/09 08:29:00;;;;;;;13.40;7.70;;;11.60;99.90;;;;;;5073208;28;20942;-78
2021/11/09 08:31:26;;;;;;;12.93;7.70;;;11.60;99.90;;;;;;5073392;28;20479;-79
2021/11/09 08:33:55;;;;;;;11.23;7.60;;;11.70;99.90;;;;;;5073251;28;20448;-89
2021/11/09 08:36:24;;;;;;;11.73;7.73;;;11.70;99.90;;;;;;5073269;28;20458;-85
2021/11/09 08:38:52;;;;;;;8.90;7.70;;;11.70;99.90;;;;;;5073290;28;20811;-86
2021/11/09 08:41:20;;;;;;;15.63;9.53;;;11.70;99.90;;;;;;5068715;28;20487;-85
2021/11/09 08:43:58;;;;;;;12.00;8.00;;;11.70;99.90;;;;;;5070567;28;20436;-84
2021/11/09 08:46:26;;;;;;;15.80;8.50;;;11.70;99.90;;;;;;5073151;28;20924;-85
2021/11/09 08:48:54;;;;;;;10.77;8.43;;;11.70;99.90;;;;;;5073123;28;20451;-86
2021/11/09 08:51:23;;;;;;;13.50;8.83;;;11.80;99.90;;;;;;5068106;28;20563;-87
2021/11/09 08:53:55;;;;;;;16.40;8.30;;;11.80;99.90;;;;;;5066807;28;20447;-87
2021/11/09 08:56:29;;;;;;;11.37;7.40;;;11.80;99.90;;;;;;5072290;28;20459;-87
2021/11/09 09:04:25;;;;;;;11.80;8.00;;;12.00;99.90;;;;;;5071936;28;20447;-86
2021/11/09 09:06:59;;;;;;;21.53;10.23;;;12.00;99.90;;;;;;5072477;28;20530;-89
2021/11/09 09:09:26;;;;;;;11.67;9.20;;;12.20;99.90;;;;;;5071102;28;20455;-87
2021/11/09 09:11:54;;;;;;;13.70;8.87;;;12.20;99.90;;;;;;5072423;28;20452;-84
2021/11/09 09:14:21;;;;;;;11.07;8.53;;;12.20;99.90;;;;;;5072091;28;20440;-86
2021/11/09 09:16:48;;;;;;;12.33;8.50;;;12.30;99.90;;;;;;5071975;28;20440;-85
2021/11/09 09:19:17;;;;;;;12.47;9.60;;;12.50;99.90;;;;;;5071439;28;20967;-84
2021/11/09 09:21:46;;;;;;;12.37;9.00;;;12.50;99.90;;;;;;5071991;28;20435;-87
2021/11/09 09:24:27;;;;;;;15.20;10.10;;;12.60;99.90;;;;;;5069545;28;20935;-87
2021/11/09 09:27:03;;;;;;;17.90;9.43;;;12.70;99.90;;;;;;5071836;28;20489;-87
2021/11/09 09:29:40;;;;;;;12.57;8.97;;;12.70;99.90;;;;;;5071573;28;20439;-87
2021/11/09 09:54:20;;;;;;;13.50;9.87;;;12.90;99.90;;;;;;5050149;28;20443;-87
2021/11/09 09:56:53;;;;;;;18.23;10.40;;;12.70;99.90;;;;;;5071404;28;20462;-87
2021/11/09 09:59:20;;;;;;;15.00;8.90;;;12.60;99.90;;;;;;5071621;28;20460;-87
2021/11/09 10:02:06;;;;;;;12.93;9.40;;;12.50;99.90;;;;;;5071491;28;20475;-87
2021/11/09 10:04:35;;;;;;;12.70;8.80;;;12.40;99.90;;;;;;5071359;28;20471;-87
2021/11/09 10:07:02;;;;;;;11.33;9.10;;;12.30;99.90;;;;;;5071106;28;20530;-87
2021/11/09 10:09:37;;;;;;;13.40;9.23;;;12.10;99.90;;;;;;5071344;28;20466;-87
2021/11/09 10:12:25;;;;;;;12.67;9.10;;;11.90;99.90;;;;;;5071287;28;20571;-87
2021/11/09 10:14:54;;;;;;;13.93;8.17;;;11.80;99.90;;;;;;5071528;28;20505;-87
2021/11/09 10:17:23;;;;;;;22.73;9.80;;;11.80;99.90;;;;;;5071269;28;20493;-86
2021/11/09 10:19:49;;;;;;;15.40;7.87;;;11.80;99.90;;;;;;5071451;28;20558;-87
2021/11/09 10:22:19;;;;;;;14.27;8.03;;;11.90;99.90;;;;;;5071354;28;21018;-86
2021/11/09 10:24:52;;;;;;;13.43;8.20;;;12.00;99.90;;;;;;5071308;28;20471;-87
2021/11/09 10:27:18;;;;;;;12.70;8.17;;;12.10;99.90;;;;;;5071052;28;20499;-87
2021/11/09 10:29:51;;;;;;;11.90;8.33;;;12.00;99.90;;;;;;5071014;28;20532;-87
2021/11/09 10:32:20;;;;;;;14.60;8.80;;;12.00;99.90;;;;;;5073940;28;20455;-87
2021/11/09 10:34:48;;;;;;;11.20;7.40;;;11.80;99.90;;;;;;5074675;28;20978;-87
2021/11/09 10:37:18;;;;;;;9.33;6.70;;;11.70;99.90;;;;;;5063310;28;20543;-86
2021/11/09 10:39:46;;;;;;;10.90;7.10;;;11.70;99.90;;;;;;5074314;28;20450;-87
2021/11/09 10:42:14;;;;;;;6.43;5.67;;;11.60;99.90;;;;;;5074702;28;20550;-86
2021/11/09 10:44:42;;;;;;;12.23;5.97;;;11.50;99.90;;;;;;5074604;28;20945;-87
2021/11/09 10:47:18;;;;;;;10.20;6.53;;;11.60;99.90;;;;;;5074952;28;21031;-87
2021/11/09 10:49:53;;;;;;;9.43;5.70;;;11.70;99.90;;;;;;5065530;28;20447;-87
2021/11/09 10:52:25;;;;;;;13.13;7.57;;;11.80;99.90;;;;;;5074861;28;20455;-88
2021/11/09 10:54:57;;;;;;;8.30;4.50;;;12.10;99.90;;;;;;5074652;28;20452;-88
2021/11/09 10:57:34;;;;;;;15.10;5.97;;;12.30;99.90;;;;;;5074947;28;20479;-88
2021/11/09 11:00:14;;;;;;;14.77;11.00;;;12.60;99.90;;;;;;5074788;28;20439;-88
2021/11/09 11:05:23;;;;;;;17.20;9.87;;;13.00;99.90;;;;;;5040895;28;20509;-88
2021/11/09 11:07:55;;;;;;;11.00;7.73;;;13.20;99.90;;;;;;5074676;28;20505;-88
2021/11/09 11:10:28;;;;;;;8.30;5.30;;;13.30;99.90;;;;;;5074498;28;20493;-88
2021/11/09 11:13:19;;;;;;;11.87;6.47;;;13.50;99.90;;;;;;5068777;28;20931;-87
2021/11/09 11:16:03;;;;;;;6.57;4.13;;;13.70;99.90;;;;;;5065161;28;20452;-87
2021/11/09 11:18:37;;;;;;;4.53;3.70;;;13.80;99.90;;;;;;5074352;28;20479;-88
2021/11/09 11:21:04;;;;;;;10.80;4.90;;;14.00;99.90;;;;;;5074420;28;20442;-88
2021/11/09 11:23:31;;;;;;;7.37;3.93;;;14.00;99.90;;;;;;5074353;28;20444;-86
2021/11/09 11:25:59;;;;;;;10.20;5.03;;;13.80;99.90;;;;;;5074057;28;20463;-87
2021/11/09 11:28:26;;;;;;;8.83;4.50;;;13.60;99.90;;;;;;5074015;28;20806;-88
2021/11/09 11:30:54;;;;;;;9.90;4.70;;;13.40;99.90;;;;;;5068004;28;20528;-87
2021/11/09 11:33:21;;;;;;;9.97;4.07;;;13.30;99.90;;;;;;5074257;28;20448;-88
2021/11/09 11:35:49;;;;;;;7.33;4.03;;;13.30;99.90;;;;;;5074013;28;20530;-87
2021/11/09 11:38:19;;;;;;;3.87;3.47;;;13.40;99.90;;;;;;5074130;28;20546;-87
2021/11/09 11:40:46;;;;;;;5.03;3.37;;;13.50;99.90;;;;;;5073565;28;20470;-88
2021/11/09 11:43:12;;;;;;;4.67;2.90;;;13.70;99.90;;;;;;5073477;28;20542;-87
2021/11/09 11:45:48;;;;;;;5.43;2.83;;;13.70;99.90;;;;;;5067599;28;20443;-87
2021/11/09 11:48:15;;;;;;;4.63;2.87;;;13.80;99.90;;;;;;5073903;28;21049;-87
2021/11/09 11:50:44;;;;;;;2.63;1.50;;;13.90;99.90;;;;;;5073565;28;20554;-88
2021/11/09 11:53:13;;;;;;;3.70;2.17;;;13.90;99.90;;;;;;5073479;28;20543;-88
2021/11/09 11:55:40;;;;;;;5.90;2.83;;;13.90;99.90;;;;;;5063604;28;20435;-88
2021/11/09 11:58:12;;;;;;;2.37;2.00;;;14.00;99.90;;;;;;5073418;28;21136;-88
2021/11/09 12:00:52;;;;;;;4.90;2.40;;;14.00;99.90;;;;;;5073452;28;20452;-88
2021/11/09 12:03:38;;;;;;;1.87;1.57;;;14.00;99.90;;;;;;5073837;28;20535;-88
2021/11/09 12:06:18;;;;;;;4.37;2.17;;;14.00;99.90;;;;;;5073768;28;20443;-86
2021/11/09 12:08:49;;;;;;;3.23;1.97;;;14.10;99.90;;;;;;5073524;28;20501;-88
2021/11/09 12:11:35;;;;;;;3.33;1.47;;;14.00;99.90;;;;;;5073580;28;20570;-87
2021/11/09 12:14:04;;;;;;;5.20;1.70;;;13.90;99.90;;;;;;5073548;28;20445;-88
2021/11/09 12:16:52;;;;;;;6.70;1.90;;;13.80;99.90;;;;;;5073701;28;20500;-86
2021/11/09 12:19:56;;;;;;;3.83;1.43;;;13.70;99.90;;;;;;5073556;28;20447;-88
2021/11/09 12:22:26;;;;;;;3.40;2.00;;;13.60;99.90;;;;;;5073366;28;20542;-87
2021/11/09 12:24:57;;;;;;;2.47;1.80;;;13.50;99.90;;;;;;5073486;28;20513;-88
2021/11/09 12:27:29;;;;;;;5.10;2.50;;;13.40;99.90;;;;;;5073068;28;20467;-88
2021/11/09 12:29:57;;;;;;;4.50;2.33;;;13.40;99.90;;;;;;5073203;28;20444;-87
2021/11/09 12:32:37;;;;;;;5.47;3.10;;;13.30;99.90;;;;;;5072703;28;20486;-88
2021/11/09 12:35:25;;;;;;;6.30;2.10;;;13.30;99.90;;;;;;5072912;28;20479;-87
2021/11/09 12:38:12;;;;;;;6.87;2.67;;;13.40;99.90;;;;;;5058675;28;20453;-87
2021/11/09 12:40:46;;;;;;;4.10;2.40;;;13.40;99.90;;;;;;5072887;28;20447;-87
2021/11/09 12:43:15;;;;;;;5.30;2.20;;;13.50;99.90;;;;;;5072497;28;20447;-87
2021/11/09 12:45:44;;;;;;;3.80;2.20;;;13.60;99.90;;;;;;5073047;28;20454;-87
2021/11/09 12:48:14;;;;;;;2.83;2.00;;;13.60;99.90;;;;;;5072772;28;20943;-86
2021/11/09 12:50:47;;;;;;;4.37;2.23;;;13.60;99.90;;;;;;5072539;28;20468;-85
2021/11/09 12:53:16;;;;;;;1.97;1.70;;;13.70;99.90;;;;;;5072454;28;20483;-86
2021/11/09 12:55:44;;;;;;;5.70;1.53;;;13.70;99.90;;;;;;5072367;28;20531;-86
2021/11/09 12:58:15;;;;;;;3.30;1.67;;;13.70;99.90;;;;;;5072575;28;20625;-85
2021/11/09 13:00:46;;;;;;;1.97;1.20;;;13.70;99.90;;;;;;5072661;28;20667;-86
2021/11/09 13:03:24;;;;;;;2.70;1.27;;;13.70;99.90;;;;;;5072571;28;20490;-85
2021/11/09 13:05:54;;;;;;;4.10;1.67;;;13.70;99.90;;;;;;5072541;28;20440;-86
2021/11/09 13:08:28;;;;;;;2.40;1.30;;;13.70;99.90;;;;;;5072576;28;20544;-87
2021/11/09 13:10:58;;;;;;;1.40;1.30;;;13.70;99.90;;;;;;5072717;28;20562;-87
2021/11/09 13:13:24;;;;;;;4.37;1.70;;;13.70;99.90;;;;;;5072586;28;20444;-86
2021/11/09 13:15:51;;;;;;;4.50;2.23;;;13.70;99.90;;;;;;5072726;28;20459;-87
2021/11/09 13:18:19;;;;;;;4.70;1.70;;;13.70;99.90;;;;;;5073031;28;20455;-86
2021/11/09 13:20:51;;;;;;;3.90;1.90;;;13.70;99.90;;;;;;5072378;28;20535;-87
2021/11/09 13:23:20;;;;;;;3.73;1.60;;;13.60;99.90;;;;;;5072585;28;20447;-86
2021/11/09 13:25:49;;;;;;;5.50;1.53;;;13.60;99.90;;;;;;5072139;28;20475;-87
2021/11/09 13:28:22;;;;;;;3.87;1.80;;;13.60;99.90;;;;;;5072014;28;20451;-86
2021/11/09 13:30:51;;;;;;;2.17;1.57;;;13.60;99.90;;;;;;5071917;28;20452;-87
2021/11/09 13:33:18;;;;;;;2.80;1.60;;;13.50;99.90;;;;;;5072071;28;20479;-87
2021/11/09 13:35:46;;;;;;;4.10;1.57;;;13.50;99.90;;;;;;5072861;28;20490;-86
2021/11/09 13:38:15;;;;;;;1.80;1.33;;;13.40;99.90;;;;;;5072733;28;20902;-87
2021/11/09 13:40:45;;;;;;;3.97;1.57;;;13.30;99.90;;;;;;5072804;28;20803;-86
2021/11/09 13:43:14;;;;;;;1.40;1.30;;;13.10;99.90;;;;;;5072427;28;20470;-87
2021/11/09 13:45:43;;;;;;;5.00;1.50;;;13.10;99.90;;;;;;5072771;28;20972;-87
2021/11/09 13:48:12;;;;;;;7.00;2.40;;;13.10;99.90;;;;;;5072760;28;20938;-88
2021/11/09 13:50:38;;;;;;;4.10;1.30;;;12.90;99.90;;;;;;5072662;28;20451;-86
2021/11/09 13:53:06;;;;;;;2.80;1.60;;;12.90;99.90;;;;;;5072583;28;20459;-86
2021/11/09 13:55:35;;;;;;;4.03;1.97;;;12.80;99.90;;;;;;5072643;28;20494;-87
2021/11/09 13:58:02;;;;;;;3.37;1.50;;;12.70;99.90;;;;;;5072724;28;20479;-86
2021/11/09 14:00:34;;;;;;;2.77;1.83;;;12.60;99.90;;;;;;5072548;28;20531;-87
2021/11/09 14:03:11;;;;;;;4.93;2.03;;;12.50;99.90;;;;;;5072763;28;20465;-86
2021/11/09 14:08:45;;;;;;;3.33;1.80;;;12.20;99.90;;;;;;5074570;28;20546;-86
2021/11/09 14:11:25;;;;;;;3.63;1.67;;;12.10;99.90;;;;;;5076618;28;20503;-86
2021/11/09 14:14:08;;;;;;;5.83;1.97;;;12.00;99.90;;;;;;5076350;28;20546;-86
2021/11/09 14:16:38;;;;;;;3.50;1.60;;;12.00;99.90;;;;;;5076274;28;20451;-86
2021/11/09 14:19:09;;;;;;;6.37;1.93;;;12.00;99.90;;;;;;5076029;28;20862;-87